createdAt,value
2022-11-30T00:03:08.735Z,39.60
2022-11-30T00:06:30.290Z,40.73
2022-11-30T00:09:53.235Z,38.37
2022-11-30T00:13:14.891Z,38.37
2022-11-30T00:16:36.568Z,38.37
2022-11-30T00:19:58.184Z,39.07
2022-11-30T00:23:20.503Z,39.63
2022-11-30T00:26:44.148Z,38.27
2022-11-30T00:30:07.195Z,39.00
2022-11-30T00:33:28.996Z,39.77
2022-11-30T00:36:50.704Z,39.30
2022-11-30T00:40:14.194Z,38.93
2022-11-30T00:43:37.555Z,38.33
2022-11-30T00:46:59.147Z,39.13
2022-11-30T00:50:20.559Z,38.87
2022-11-30T00:53:42.682Z,39.20
2022-11-30T00:57:04.335Z,40.07
2022-11-30T01:00:27.671Z,39.87
2022-11-30T01:03:49.220Z,39.27
2022-11-30T01:07:11.079Z,39.90
2022-11-30T01:10:34.298Z,39.77
2022-11-30T01:13:56.758Z,39.50
2022-11-30T01:17:19.698Z,38.87
2022-11-30T01:20:42.602Z,39.10
2022-11-30T01:24:04.231Z,39.63
2022-11-30T01:27:25.840Z,39.87
2022-11-30T01:30:56.328Z,38.47
2022-11-30T01:34:19.499Z,38.57
2022-11-30T01:37:40.956Z,38.87
2022-11-30T01:41:03.220Z,39.00
2022-11-30T01:44:52.342Z,39.50
2022-11-30T01:48:14.063Z,39.27
2022-11-30T01:51:41.468Z,39.10
2022-11-30T01:55:12.924Z,39.13
2022-11-30T01:58:36.661Z,39.60
2022-11-30T02:01:59.388Z,40.13
2022-11-30T02:05:22.304Z,38.47
2022-11-30T02:08:45.590Z,39.53
2022-11-30T02:12:10.139Z,38.83
2022-11-30T02:15:39.420Z,39.00
2022-11-30T02:19:12.695Z,38.33
2022-11-30T02:22:49.710Z,38.23
2022-11-30T02:26:29.082Z,37.93
2022-11-30T02:29:57.510Z,38.73
2022-11-30T02:33:22.431Z,39.83
2022-11-30T02:36:46.874Z,38.50
2022-11-30T02:40:10.488Z,38.57
2022-11-30T02:43:35.219Z,37.27
2022-11-30T02:47:19.621Z,37.87
2022-11-30T02:50:46.987Z,36.80
2022-11-30T02:54:09.426Z,36.23
2022-11-30T02:57:31.008Z,37.27
2022-11-30T03:00:53.043Z,38.60
2022-11-30T03:04:16.152Z,38.80
2022-11-30T03:07:38.297Z,37.63
2022-11-30T03:11:03.154Z,38.97
2022-11-30T03:14:25.052Z,38.57
2022-11-30T03:17:47.004Z,38.03
2022-11-30T03:21:11.835Z,36.87
2022-11-30T03:24:33.500Z,37.37
2022-11-30T03:27:55.458Z,39.77
2022-11-30T03:31:17.090Z,39.47
2022-11-30T03:34:39.034Z,38.83
2022-11-30T03:38:02.323Z,37.80
2022-11-30T03:41:24.251Z,38.07
2022-11-30T03:44:46.209Z,38.90
2022-11-30T03:48:08.142Z,37.00
2022-11-30T03:51:29.871Z,39.90
2022-11-30T03:54:52.590Z,37.77
2022-11-30T03:58:14.553Z,37.87
2022-11-30T04:01:37.030Z,38.20
2022-11-30T04:04:58.613Z,38.17
2022-11-30T04:08:20.042Z,39.70
2022-11-30T04:11:43.338Z,39.13
2022-11-30T04:15:05.580Z,37.53
2022-11-30T04:18:29.119Z,37.43
2022-11-30T04:21:51.555Z,39.40
2022-11-30T04:25:13.596Z,39.37
2022-11-30T04:28:36.930Z,38.40
2022-11-30T04:31:58.663Z,39.20
2022-11-30T04:35:20.611Z,37.67
2022-11-30T04:38:42.680Z,37.93
2022-11-30T04:42:04.757Z,38.30
2022-11-30T04:45:32.480Z,38.23
2022-11-30T04:48:56.770Z,37.37
2022-11-30T04:52:18.693Z,39.70
2022-11-30T04:55:40.451Z,39.67
2022-11-30T04:59:02.826Z,38.53
2022-11-30T05:02:26.279Z,38.07
2022-11-30T05:05:48.482Z,39.03
2022-11-30T05:09:10.549Z,39.10
2022-11-30T05:12:32.650Z,38.57
2022-11-30T05:15:54.671Z,38.83
2022-11-30T05:19:17.462Z,40.30
2022-11-30T05:22:39.275Z,38.87
2022-11-30T05:26:02.811Z,37.10
2022-11-30T05:29:24.687Z,38.97
2022-11-30T05:32:46.625Z,39.27
2022-11-30T05:36:11.175Z,47.10
2022-11-30T05:39:32.963Z,40.63
2022-11-30T05:42:57.673Z,38.27
2022-11-30T05:46:19.241Z,38.20
2022-11-30T05:49:40.662Z,38.73
2022-11-30T05:53:04.066Z,39.40
2022-11-30T05:56:25.813Z,39.13
2022-11-30T05:59:47.715Z,39.13
2022-11-30T06:03:09.350Z,40.00
2022-11-30T06:06:31.242Z,39.03
2022-11-30T06:09:54.543Z,39.97
2022-11-30T06:13:16.516Z,39.40
2022-11-30T06:16:39.604Z,39.53
2022-11-30T06:20:01.397Z,38.80
2022-11-30T06:23:23.521Z,39.53
2022-11-30T06:26:47.311Z,40.37
2022-11-30T06:30:10.611Z,39.63
2022-11-30T06:33:32.484Z,39.30
2022-11-30T06:36:54.046Z,39.97
2022-11-30T06:40:17.150Z,39.00
2022-11-30T06:43:40.919Z,38.63
2022-11-30T06:47:02.517Z,39.30
2022-11-30T06:50:24.414Z,39.33
2022-11-30T06:53:47.237Z,40.87
2022-11-30T06:57:08.814Z,38.37
2022-11-30T07:00:32.107Z,40.37
2022-11-30T07:03:54.390Z,40.20
2022-11-30T07:07:16.101Z,39.77
2022-11-30T07:10:41.748Z,40.67
2022-11-30T07:14:03.186Z,38.37
2022-11-30T07:17:26.562Z,37.17
2022-11-30T07:20:48.555Z,40.27
2022-11-30T07:24:30.470Z,39.43
2022-11-30T07:27:52.113Z,40.03
2022-11-30T07:31:16.937Z,40.50
2022-11-30T07:34:39.972Z,39.07
2022-11-30T07:38:08.195Z,39.30
2022-11-30T07:41:31.501Z,39.67
2022-11-30T07:44:59.149Z,38.03
2022-11-30T07:48:21.993Z,39.83
2022-11-30T07:51:46.592Z,39.23
2022-11-30T07:55:09.554Z,40.93
2022-11-30T07:58:31.975Z,42.17
2022-11-30T08:01:53.898Z,40.70
2022-11-30T08:05:16.146Z,40.70
2022-11-30T08:08:40.912Z,40.97
2022-11-30T08:12:03.046Z,39.90
2022-11-30T08:15:30.757Z,41.83
2022-11-30T08:18:54.363Z,41.10
2022-11-30T08:22:16.094Z,40.60
2022-11-30T08:25:39.732Z,41.97
2022-11-30T08:29:02.652Z,43.97
2022-11-30T08:32:24.226Z,43.70
2022-11-30T08:35:46.700Z,41.07
2022-11-30T08:39:10.162Z,41.43
2022-11-30T08:42:33.576Z,42.27
2022-11-30T08:45:57.347Z,40.30
2022-11-30T08:49:23.012Z,40.83
2022-11-30T08:52:45.590Z,42.03
2022-11-30T08:56:09.658Z,41.33
2022-11-30T08:59:33.661Z,41.47
2022-11-30T09:02:55.305Z,41.23
2022-11-30T09:06:18.969Z,41.07
2022-11-30T09:09:40.506Z,41.00
2022-11-30T09:13:02.645Z,40.50
2022-11-30T09:16:27.448Z,43.23
2022-11-30T09:19:49.369Z,41.47
2022-11-30T09:23:11.288Z,42.07
2022-11-30T09:26:33.207Z,43.70
2022-11-30T09:29:55.047Z,42.87
2022-11-30T09:33:18.466Z,42.03
2022-11-30T09:36:40.478Z,42.47
2022-11-30T09:40:02.639Z,41.80
2022-11-30T09:43:35.471Z,42.87
2022-11-30T09:47:05.538Z,41.80
2022-11-30T09:50:33.059Z,41.87
2022-11-30T09:53:58.266Z,43.17
2022-11-30T09:57:27.024Z,41.07
2022-11-30T10:00:49.047Z,42.60
2022-11-30T10:04:22.235Z,43.13
2022-11-30T10:08:03.574Z,43.57
2022-11-30T10:11:44.688Z,42.83
2022-11-30T10:15:21.861Z,43.27
2022-11-30T10:18:54.113Z,41.40
2022-11-30T10:22:27.659Z,42.47
2022-11-30T10:25:56.940Z,41.57
2022-11-30T10:29:21.285Z,43.43
2022-11-30T10:32:47.318Z,42.80
2022-11-30T10:36:14.689Z,43.47
2022-11-30T10:39:44.192Z,40.43
2022-11-30T10:43:18.671Z,41.60
2022-11-30T10:46:46.712Z,42.10
2022-11-30T10:50:09.566Z,42.90
2022-11-30T10:53:33.280Z,41.83
2022-11-30T10:56:55.566Z,40.73
2022-11-30T11:00:19.322Z,42.03
2022-11-30T11:03:41.422Z,41.47
2022-11-30T11:07:10.477Z,41.53
2022-11-30T11:10:36.538Z,40.97
2022-11-30T11:14:17.447Z,40.60
2022-11-30T11:17:40.288Z,41.03
2022-11-30T11:21:07.502Z,41.33
2022-11-30T11:24:29.521Z,41.83
2022-11-30T11:27:54.245Z,41.30
2022-11-30T11:31:26.336Z,41.87
2022-11-30T11:34:51.528Z,41.53
2022-11-30T11:38:21.805Z,44.23
2022-11-30T11:41:43.670Z,43.07
2022-11-30T11:45:07.255Z,42.67
2022-11-30T11:48:36.511Z,43.77
2022-11-30T11:52:04.041Z,42.17
2022-11-30T11:55:26.086Z,42.43
2022-11-30T11:58:52.315Z,47.13
2022-11-30T12:02:28.630Z,44.10
2022-11-30T12:05:54.415Z,43.30
2022-11-30T12:09:23.186Z,41.77
2022-11-30T12:12:49.475Z,42.23
2022-11-30T12:16:31.745Z,40.27
2022-11-30T12:20:01.877Z,41.13
2022-11-30T12:23:42.067Z,41.37
2022-11-30T12:27:15.684Z,42.93
2022-11-30T12:30:43.752Z,41.70
2022-11-30T12:34:14.024Z,42.00
2022-11-30T12:37:49.322Z,42.00
2022-11-30T12:41:26.488Z,41.03
2022-11-30T12:44:55.944Z,40.57
2022-11-30T12:48:29.404Z,42.37
2022-11-30T12:51:59.534Z,41.33
2022-11-30T12:55:29.911Z,41.20
2022-11-30T12:58:58.182Z,40.43
2022-11-30T13:02:46.058Z,39.83
2022-11-30T13:06:13.028Z,39.30
2022-11-30T13:09:38.521Z,40.50
2022-11-30T13:13:04.464Z,39.03
2022-11-30T13:16:27.557Z,38.83
2022-11-30T13:19:59.863Z,37.57
2022-11-30T13:23:32.608Z,39.10
2022-11-30T13:27:00.285Z,38.93
2022-11-30T13:30:39.883Z,37.77
2022-11-30T13:34:02.199Z,39.60
2022-11-30T13:37:28.717Z,37.50
2022-11-30T13:40:58.659Z,37.73
2022-11-30T13:44:32.579Z,36.50
2022-11-30T13:47:55.651Z,35.03
2022-11-30T13:51:35.316Z,36.57
2022-11-30T13:54:58.603Z,35.50
2022-11-30T13:58:21.432Z,36.27
2022-11-30T14:01:43.549Z,36.13
2022-11-30T14:05:26.392Z,36.93
2022-11-30T14:08:49.054Z,36.00
2022-11-30T14:12:55.974Z,35.63
2022-11-30T14:16:27.377Z,34.57
2022-11-30T14:19:52.172Z,33.07
2022-11-30T14:23:16.433Z,33.00
2022-11-30T14:26:43.666Z,32.83
2022-11-30T14:30:07.064Z,33.93
2022-11-30T14:33:39.342Z,32.70
2022-11-30T14:37:06.367Z,33.27
2022-11-30T14:40:31.071Z,33.73
2022-11-30T14:44:04.507Z,33.63
2022-11-30T14:47:28.263Z,32.70
2022-11-30T14:50:53.767Z,34.30
2022-11-30T14:54:32.429Z,33.20
2022-11-30T14:58:07.100Z,32.10
2022-11-30T15:01:33.090Z,32.60
2022-11-30T15:04:56.727Z,32.77
2022-11-30T15:08:21.052Z,33.10
2022-11-30T15:11:44.196Z,32.93
2022-11-30T15:15:14.679Z,31.50
2022-11-30T15:18:40.511Z,32.00
2022-11-30T15:22:02.347Z,32.40
2022-11-30T15:25:31.920Z,32.63
2022-11-30T15:28:59.240Z,33.17
2022-11-30T15:32:25.466Z,34.80
2022-11-30T15:36:15.861Z,33.83
2022-11-30T15:39:31.051Z,33.37
2022-11-30T15:42:54.432Z,33.20
2022-11-30T15:46:29.528Z,32.93
2022-11-30T15:49:53.914Z,33.13
2022-11-30T15:53:26.417Z,33.37
2022-11-30T15:56:57.832Z,32.93
2022-11-30T16:00:22.842Z,33.50
2022-11-30T16:04:05.832Z,32.93
2022-11-30T16:07:32.031Z,34.03
2022-11-30T16:10:55.047Z,29.73
2022-11-30T16:14:17.876Z,27.40
2022-11-30T16:17:41.964Z,29.10
2022-11-30T16:21:04.367Z,30.00
2022-11-30T16:24:25.979Z,28.77
2022-11-30T16:27:48.111Z,31.40
2022-11-30T16:31:17.298Z,30.20
2022-11-30T16:34:40.551Z,30.40
2022-11-30T16:38:02.569Z,30.77
2022-11-30T16:41:26.654Z,30.20
2022-11-30T16:44:48.343Z,32.23
2022-11-30T16:48:09.803Z,32.80
2022-11-30T16:51:34.741Z,32.77
2022-11-30T16:54:56.729Z,34.23
2022-11-30T16:58:18.839Z,37.97
2022-11-30T17:01:43.225Z,34.23
2022-11-30T17:05:05.533Z,34.67
2022-11-30T17:08:28.928Z,33.33
2022-11-30T17:11:51.741Z,31.63
2022-11-30T17:15:17.523Z,31.23
2022-11-30T17:18:39.210Z,32.30
2022-11-30T17:22:01.112Z,29.33
2022-11-30T17:25:25.326Z,31.30
2022-11-30T17:28:47.651Z,29.50
2022-11-30T17:32:09.737Z,30.47
2022-11-30T17:35:31.795Z,32.53
2022-11-30T17:38:53.864Z,31.57
2022-11-30T17:42:17.454Z,31.27
2022-11-30T17:45:41.227Z,33.23
2022-11-30T17:49:02.735Z,31.77
2022-11-30T17:52:24.786Z,32.47
2022-11-30T17:55:46.832Z,31.93
2022-11-30T17:59:09.890Z,30.97
2022-11-30T18:02:31.433Z,32.73
2022-11-30T18:05:53.096Z,31.53
2022-11-30T18:09:15.075Z,32.03
2022-11-30T18:12:37.235Z,31.73
2022-11-30T18:16:10.619Z,33.60
2022-11-30T18:19:32.613Z,32.03
2022-11-30T18:22:54.688Z,30.37
2022-11-30T18:26:17.835Z,32.13
2022-11-30T18:29:39.944Z,33.10
2022-11-30T18:33:03.425Z,31.83
2022-11-30T18:36:25.407Z,30.70
2022-11-30T18:39:47.070Z,30.83
2022-11-30T18:43:09.182Z,32.73
2022-11-30T18:46:31.243Z,32.40
2022-11-30T18:49:55.994Z,32.10
2022-11-30T18:53:18.614Z,33.13
2022-11-30T18:56:40.416Z,32.80
2022-11-30T19:00:02.047Z,31.33
2022-11-30T19:03:23.807Z,32.97
2022-11-30T19:06:46.977Z,30.50
2022-11-30T19:10:10.233Z,31.40
2022-11-30T19:13:32.314Z,31.60
2022-11-30T19:16:53.931Z,32.90
2022-11-30T19:20:16.024Z,32.10
2022-11-30T19:23:40.179Z,32.80
2022-11-30T19:27:02.116Z,33.63
2022-11-30T19:30:26.329Z,32.43
2022-11-30T19:33:50.273Z,33.43
2022-11-30T19:37:11.934Z,34.10
2022-11-30T19:40:35.280Z,33.30
2022-11-30T19:44:03.111Z,33.77
2022-11-30T19:47:25.471Z,32.53
2022-11-30T19:50:47.354Z,33.80
2022-11-30T19:54:09.164Z,33.60
2022-11-30T19:57:32.502Z,31.10
2022-11-30T20:00:54.069Z,34.27
2022-11-30T20:04:16.004Z,34.03
2022-11-30T20:07:37.937Z,32.13
2022-11-30T20:10:59.889Z,35.20
2022-11-30T20:14:23.599Z,33.33
2022-11-30T20:17:45.638Z,33.10
2022-11-30T20:21:12.784Z,36.53
2022-11-30T20:24:34.634Z,33.43
2022-11-30T20:27:56.338Z,33.27
2022-11-30T20:31:22.062Z,35.70
2022-11-30T20:34:44.779Z,34.97
2022-11-30T20:38:06.663Z,34.70
2022-11-30T20:41:28.638Z,34.67
2022-11-30T20:44:50.916Z,35.37
2022-11-30T20:48:14.413Z,34.33
2022-11-30T20:51:36.094Z,33.83
2022-11-30T20:54:57.570Z,32.80
2022-11-30T20:58:19.020Z,35.27
2022-11-30T21:01:42.524Z,32.50
2022-11-30T21:05:06.434Z,32.37
2022-11-30T21:08:28.472Z,31.57
2022-11-30T21:11:50.426Z,32.60
2022-11-30T21:15:12.494Z,32.37
2022-11-30T21:18:34.482Z,31.37
2022-11-30T21:21:59.271Z,32.60
2022-11-30T21:25:20.890Z,30.97
2022-11-30T21:28:42.878Z,31.57
2022-11-30T21:32:04.473Z,30.70
2022-11-30T21:35:26.492Z,31.67
2022-11-30T21:38:53.679Z,32.60
2022-11-30T21:42:15.700Z,30.97
2022-11-30T21:45:37.347Z,30.73
2022-11-30T21:48:59.209Z,31.53
2022-11-30T21:52:21.139Z,31.80
2022-11-30T21:55:44.058Z,30.57
2022-11-30T21:59:07.736Z,33.20
2022-11-30T22:02:29.943Z,32.27
2022-11-30T22:06:02.134Z,32.77
2022-11-30T22:09:23.608Z,35.10
2022-11-30T22:12:46.811Z,34.40
2022-11-30T22:16:11.187Z,33.93
2022-11-30T22:19:33.062Z,33.87
2022-11-30T22:22:54.718Z,34.37
2022-11-30T22:26:18.592Z,33.63
2022-11-30T22:29:41.462Z,35.93
2022-11-30T22:33:03.186Z,34.60
2022-11-30T22:36:26.541Z,36.27
2022-11-30T22:39:48.663Z,33.10
2022-11-30T22:43:10.216Z,34.20
2022-11-30T22:46:35.294Z,35.67
2022-11-30T22:49:57.072Z,33.23
2022-11-30T22:53:18.963Z,32.83
2022-11-30T22:56:42.094Z,32.93
2022-11-30T23:00:04.901Z,33.80
2022-11-30T23:03:28.982Z,33.33
2022-11-30T23:06:51.102Z,32.20
2022-11-30T23:10:14.798Z,35.20
2022-11-30T23:13:37.295Z,34.17
2022-11-30T23:16:59.215Z,33.50
2022-11-30T23:20:23.105Z,32.83
2022-11-30T23:23:45.850Z,33.90
2022-11-30T23:27:07.730Z,32.93
2022-11-30T23:30:29.798Z,33.60
2022-11-30T23:33:52.898Z,34.20
2022-11-30T23:37:16.311Z,34.27
2022-11-30T23:40:38.251Z,34.37
2022-11-30T23:44:00.105Z,34.40
2022-11-30T23:47:22.043Z,34.20
2022-11-30T23:50:43.924Z,34.00
2022-11-30T23:54:07.387Z,35.47
2022-11-30T23:57:29.359Z,34.90
